createdAt,value
2018-12-29T00:01:00.293Z,15.97
2018-12-29T00:04:04.665Z,14.90
2018-12-29T00:07:09.052Z,16.13
2018-12-29T00:10:13.461Z,16.97
2018-12-29T00:13:17.919Z,16.53
2018-12-29T00:16:22.322Z,15.80
2018-12-29T00:19:26.680Z,16.40
2018-12-29T00:22:31.081Z,17.63
2018-12-29T00:25:35.400Z,15.67
2018-12-29T00:28:39.768Z,17.40
2018-12-29T00:31:44.107Z,16.40
2018-12-29T00:34:48.386Z,16.53
2018-12-29T00:37:52.782Z,17.57
2018-12-29T00:40:57.177Z,17.47
2018-12-29T00:44:01.563Z,15.77
2018-12-29T00:47:05.963Z,17.03
2018-12-29T00:50:10.503Z,16.60
2018-12-29T00:53:14.897Z,18.80
2018-12-29T00:56:19.287Z,17.27
2018-12-29T00:59:23.639Z,18.40
2018-12-29T01:02:27.981Z,18.27
2018-12-29T01:05:32.361Z,18.37
2018-12-29T01:08:36.937Z,18.77
2018-12-29T01:11:41.304Z,17.60
2018-12-29T01:14:45.698Z,17.80
2018-12-29T01:17:50.030Z,19.40
2018-12-29T01:20:54.407Z,17.67
2018-12-29T01:23:58.792Z,17.97
2018-12-29T01:27:03.152Z,20.43
2018-12-29T01:30:08.064Z,18.40
2018-12-29T01:33:12.403Z,18.40
2018-12-29T01:36:16.780Z,18.83
2018-12-29T01:39:21.218Z,17.63
2018-12-29T01:42:25.582Z,18.97
2018-12-29T01:45:29.911Z,18.03
2018-12-29T01:48:34.189Z,18.47
2018-12-29T01:51:38.576Z,19.07
2018-12-29T01:54:42.855Z,20.10
2018-12-29T01:57:47.193Z,19.47
2018-12-29T02:00:51.514Z,19.37
2018-12-29T02:03:55.844Z,19.37
2018-12-29T02:07:00.236Z,19.03
2018-12-29T02:10:04.692Z,17.93
2018-12-29T02:13:08.990Z,18.10
2018-12-29T02:16:13.323Z,18.30
2018-12-29T02:19:17.677Z,18.57
2018-12-29T02:22:22.111Z,18.77
2018-12-29T02:25:26.498Z,19.60
2018-12-29T02:28:30.822Z,19.30
2018-12-29T02:31:35.212Z,18.80
2018-12-29T02:34:39.524Z,18.90
2018-12-29T02:37:44.000Z,19.70
2018-12-29T02:40:48.315Z,19.07
2018-12-29T02:43:52.799Z,19.60
2018-12-29T02:46:57.185Z,18.57
2018-12-29T02:50:01.571Z,18.47
2018-12-29T02:53:09.504Z,17.10
2018-12-29T02:56:13.882Z,18.20
2018-12-29T02:59:18.239Z,19.67
2018-12-29T03:02:22.612Z,20.03
2018-12-29T03:05:27.066Z,22.50
2018-12-29T03:08:31.517Z,22.60
2018-12-29T03:11:35.905Z,22.13
2018-12-29T03:14:40.264Z,24.00
2018-12-29T03:17:44.611Z,22.87
2018-12-29T03:20:48.957Z,22.97
2018-12-29T03:23:53.303Z,22.97
2018-12-29T03:26:57.620Z,22.47
2018-12-29T03:30:01.931Z,24.93
2018-12-29T03:33:06.274Z,24.57
2018-12-29T03:36:10.524Z,27.80
2018-12-29T03:39:14.869Z,25.73
2018-12-29T03:42:19.252Z,24.80
2018-12-29T03:45:23.663Z,33.83
2018-12-29T03:48:28.018Z,23.57
2018-12-29T03:51:32.355Z,23.30
2018-12-29T03:54:36.722Z,26.60
2018-12-29T03:57:40.990Z,32.03
2018-12-29T04:00:45.328Z,24.90
2018-12-29T04:03:49.708Z,24.23
2018-12-29T04:06:54.007Z,23.57
2018-12-29T04:09:58.349Z,23.63
2018-12-29T04:13:02.983Z,23.70
2018-12-29T04:16:07.385Z,26.33
2018-12-29T04:19:11.802Z,24.00
2018-12-29T04:22:16.178Z,23.13
2018-12-29T04:25:24.502Z,24.37
2018-12-29T04:28:28.813Z,23.10
2018-12-29T04:31:33.495Z,23.77
2018-12-29T04:34:37.830Z,22.93
2018-12-29T04:37:42.209Z,22.30
2018-12-29T04:40:46.596Z,22.40
2018-12-29T04:43:50.900Z,21.23
2018-12-29T04:46:55.301Z,22.63
2018-12-29T04:49:59.621Z,23.20
2018-12-29T04:53:03.931Z,22.77
2018-12-29T04:56:08.326Z,23.53
2018-12-29T04:59:12.665Z,23.17
2018-12-29T05:02:17.040Z,23.97
2018-12-29T05:05:21.450Z,23.27
2018-12-29T05:08:25.791Z,22.93
2018-12-29T05:11:30.477Z,24.00
2018-12-29T05:14:34.814Z,23.33
2018-12-29T05:17:39.135Z,24.00
2018-12-29T05:20:43.531Z,23.13
2018-12-29T05:23:47.884Z,24.37
2018-12-29T05:26:52.269Z,24.47
2018-12-29T05:29:56.708Z,25.60
2018-12-29T05:33:01.005Z,25.37
2018-12-29T05:36:05.370Z,26.23
2018-12-29T05:39:09.731Z,25.73
2018-12-29T05:42:14.041Z,24.27
2018-12-29T05:45:18.423Z,24.80
2018-12-29T05:48:22.748Z,22.70
2018-12-29T05:51:27.045Z,24.40
2018-12-29T05:54:31.670Z,26.07
2018-12-29T05:57:36.157Z,24.77
2018-12-29T06:00:40.531Z,24.97
2018-12-29T06:03:44.892Z,24.63
2018-12-29T06:06:49.261Z,24.27
2018-12-29T06:09:53.619Z,24.00
2018-12-29T06:12:58.024Z,25.20
2018-12-29T06:16:02.351Z,25.77
2018-12-29T06:19:06.698Z,25.50
2018-12-29T06:22:11.074Z,25.77
2018-12-29T06:25:15.421Z,25.23
2018-12-29T06:28:19.748Z,25.33
2018-12-29T06:31:24.135Z,25.20
2018-12-29T06:34:28.491Z,24.37
2018-12-29T06:37:32.872Z,23.73
2018-12-29T06:40:37.112Z,23.63
2018-12-29T06:43:41.464Z,24.33
2018-12-29T06:46:45.794Z,23.93
2018-12-29T06:49:50.160Z,22.70
2018-12-29T06:52:54.527Z,24.20
2018-12-29T06:55:58.820Z,24.93
2018-12-29T06:59:03.219Z,24.93
2018-12-29T07:02:07.627Z,24.63
2018-12-29T07:05:11.968Z,25.47
2018-12-29T07:08:16.286Z,26.40
2018-12-29T07:11:20.682Z,28.23
2018-12-29T07:14:25.082Z,29.80
2018-12-29T07:17:29.540Z,23.80
2018-12-29T07:20:33.812Z,22.40
2018-12-29T07:23:38.129Z,24.50
2018-12-29T07:26:42.549Z,23.53
2018-12-29T07:29:46.922Z,25.00
2018-12-29T07:32:51.191Z,17.83
2018-12-29T07:35:55.571Z,17.17
2018-12-29T07:39:01.908Z,19.17
2018-12-29T07:42:05.940Z,18.13
2018-12-29T07:45:10.308Z,17.67
2018-12-29T07:48:14.670Z,18.17
2018-12-29T07:51:19.118Z,17.67
2018-12-29T07:54:23.474Z,19.43
2018-12-29T07:57:27.775Z,17.50
2018-12-29T08:00:32.489Z,17.60
2018-12-29T08:03:37.289Z,17.60
2018-12-29T08:06:41.579Z,18.63
2018-12-29T08:09:46.083Z,17.67
2018-12-29T08:12:50.455Z,17.57
2018-12-29T08:15:54.857Z,19.20
2018-12-29T08:18:59.189Z,25.33
2018-12-29T08:22:03.695Z,24.80
2018-12-29T08:25:08.078Z,24.40
2018-12-29T08:28:12.575Z,25.23
2018-12-29T08:31:17.404Z,25.20
2018-12-29T08:34:21.781Z,23.50
2018-12-29T08:37:26.149Z,25.93
2018-12-29T08:40:30.553Z,24.00
2018-12-29T08:43:34.892Z,25.07
2018-12-29T08:46:39.276Z,24.97
2018-12-29T08:49:43.969Z,23.13
2018-12-29T08:52:48.314Z,24.10
2018-12-29T08:55:55.661Z,20.83
2018-12-29T08:59:00.058Z,22.03
2018-12-29T09:02:04.618Z,21.17
2018-12-29T09:05:09.017Z,22.20
2018-12-29T09:08:13.499Z,21.90
2018-12-29T09:11:17.858Z,21.87
2018-12-29T09:14:22.290Z,21.03
2018-12-29T09:17:28.374Z,20.03
2018-12-29T09:20:32.945Z,19.53
2018-12-29T09:23:37.323Z,20.97
2018-12-29T09:26:41.753Z,21.27
2018-12-29T09:29:46.389Z,21.23
2018-12-29T09:32:50.777Z,20.40
2018-12-29T09:35:56.327Z,20.70
2018-12-29T09:39:01.021Z,20.50
2018-12-29T09:42:05.812Z,20.40
2018-12-29T09:45:10.201Z,20.07
2018-12-29T09:48:14.559Z,21.10
2018-12-29T09:51:18.879Z,20.43
2018-12-29T09:54:30.081Z,19.27
2018-12-29T09:57:34.387Z,16.27
2018-12-29T10:00:39.200Z,15.53
2018-12-29T10:03:43.608Z,19.43
2018-12-29T10:06:48.007Z,15.73
2018-12-29T10:09:52.501Z,14.80
2018-12-29T10:12:56.849Z,15.60
2018-12-29T10:16:01.277Z,14.27
2018-12-29T10:19:05.790Z,14.17
2018-12-29T10:22:10.101Z,14.57
2018-12-29T10:25:14.693Z,14.53
2018-12-29T10:28:19.270Z,14.93
2018-12-29T10:31:23.610Z,13.93
2018-12-29T10:34:28.049Z,13.67
2018-12-29T10:37:32.325Z,13.90
2018-12-29T10:40:36.787Z,14.10
2018-12-29T10:43:41.153Z,14.57
2018-12-29T10:46:45.618Z,14.93
2018-12-29T10:49:50.215Z,16.50
2018-12-29T10:52:54.691Z,14.87
2018-12-29T10:55:59.105Z,14.70
2018-12-29T10:59:03.672Z,15.87
2018-12-29T11:02:08.174Z,16.17
2018-12-29T11:05:12.630Z,15.83
2018-12-29T11:08:17.088Z,16.27
2018-12-29T11:11:21.538Z,16.57
2018-12-29T11:14:26.435Z,16.63
2018-12-29T11:17:30.803Z,15.97
2018-12-29T11:20:35.272Z,16.77
2018-12-29T11:23:40.232Z,17.93
2018-12-29T11:26:44.868Z,16.10
2018-12-29T11:29:49.332Z,16.97
2018-12-29T11:32:54.100Z,16.87
2018-12-29T11:35:58.512Z,16.90
2018-12-29T11:39:03.718Z,15.30
2018-12-29T11:42:08.110Z,17.10
2018-12-29T11:45:12.513Z,17.33
2018-12-29T11:48:16.999Z,18.50
2018-12-29T11:51:21.364Z,18.33
2018-12-29T11:54:25.775Z,14.83
2018-12-29T11:57:30.328Z,16.57
2018-12-29T12:00:34.736Z,16.33
2018-12-29T12:03:39.158Z,15.73
2018-12-29T12:06:43.496Z,16.67
2018-12-29T12:09:48.239Z,17.03
2018-12-29T12:12:52.562Z,17.40
2018-12-29T12:15:56.962Z,17.30
2018-12-29T12:19:01.335Z,17.43
2018-12-29T12:22:05.707Z,17.57
2018-12-29T12:25:10.111Z,17.17
2018-12-29T12:28:14.502Z,16.17
2018-12-29T12:31:18.992Z,18.13
2018-12-29T12:34:23.338Z,17.30
2018-12-29T12:37:27.759Z,18.27
2018-12-29T12:40:32.404Z,18.03
2018-12-29T12:43:36.874Z,16.97
2018-12-29T12:46:41.755Z,16.87
2018-12-29T12:49:46.493Z,16.43
2018-12-29T12:52:50.902Z,17.63
2018-12-29T12:55:55.239Z,16.70
2018-12-29T12:58:59.982Z,16.10
2018-12-29T13:02:04.563Z,15.60
2018-12-29T13:05:08.970Z,17.03
2018-12-29T13:08:13.404Z,16.90
2018-12-29T13:11:17.770Z,16.37
2018-12-29T13:14:22.223Z,14.73
2018-12-29T13:17:26.683Z,16.77
2018-12-29T13:20:31.103Z,15.90
2018-12-29T13:23:35.511Z,17.67
2018-12-29T13:26:40.408Z,15.20
2018-12-29T13:29:44.803Z,15.80
2018-12-29T13:32:49.201Z,16.20
2018-12-29T13:35:53.702Z,15.90
2018-12-29T13:38:58.047Z,17.30
2018-12-29T13:42:02.448Z,17.03
2018-12-29T13:45:06.883Z,17.67
2018-12-29T13:48:11.251Z,16.93
2018-12-29T13:51:15.930Z,18.00
2018-12-29T13:54:23.470Z,19.00
2018-12-29T13:57:30.877Z,18.63
2018-12-29T14:00:35.157Z,17.13
2018-12-29T14:03:39.695Z,17.87
2018-12-29T14:06:44.194Z,15.97
2018-12-29T14:09:48.670Z,17.87
2018-12-29T14:12:53.546Z,18.00
2018-12-29T14:15:58.155Z,17.77
2018-12-29T14:19:02.891Z,19.03
2018-12-29T14:22:07.705Z,20.67
2018-12-29T14:25:12.283Z,23.80
2018-12-29T14:28:16.887Z,20.40
2018-12-29T14:31:21.250Z,14.30
2018-12-29T14:34:27.708Z,13.23
2018-12-29T14:37:31.800Z,14.13
2018-12-29T14:40:36.426Z,13.40
2018-12-29T14:43:40.992Z,15.03
2018-12-29T14:46:45.328Z,13.80
2018-12-29T14:49:50.156Z,14.83
2018-12-29T14:52:57.535Z,13.20
2018-12-29T14:56:01.890Z,13.43
2018-12-29T14:59:06.470Z,13.73
2018-12-29T15:02:11.189Z,13.30
2018-12-29T15:05:15.596Z,13.97
2018-12-29T15:08:19.963Z,13.60
2018-12-29T15:11:24.346Z,14.37
2018-12-29T15:14:28.778Z,13.50
2018-12-29T15:17:33.142Z,13.73
2018-12-29T15:20:37.938Z,13.97
2018-12-29T15:23:42.699Z,13.37
2018-12-29T15:26:47.658Z,13.80
2018-12-29T15:29:52.405Z,13.47
2018-12-29T15:32:56.800Z,13.20
2018-12-29T15:36:01.317Z,12.97
2018-12-29T15:39:07.790Z,13.33
2018-12-29T15:42:12.352Z,13.87
2018-12-29T15:45:16.759Z,13.23
2018-12-29T15:48:21.151Z,13.33
2018-12-29T15:51:25.451Z,12.33
2018-12-29T15:54:32.284Z,12.67
2018-12-29T15:57:36.683Z,11.67
2018-12-29T16:00:41.132Z,10.93
2018-12-29T16:03:45.645Z,12.77
2018-12-29T16:06:50.100Z,12.00
2018-12-29T16:09:54.743Z,11.13
2018-12-29T16:12:59.432Z,12.90
2018-12-29T16:16:03.935Z,20.47
2018-12-29T16:19:08.384Z,27.17
2018-12-29T16:22:12.845Z,16.93
2018-12-29T16:25:17.302Z,14.93
2018-12-29T16:28:21.675Z,13.13
2018-12-29T16:31:26.084Z,14.40
2018-12-29T16:34:30.506Z,16.90
2018-12-29T16:37:34.932Z,14.60
2018-12-29T16:40:39.440Z,14.73
2018-12-29T16:43:44.005Z,19.90
2018-12-29T16:46:48.342Z,24.30
2018-12-29T16:49:52.803Z,10.93
2018-12-29T16:52:57.527Z,11.33
2018-12-29T16:56:02.045Z,8.30
2018-12-29T16:59:06.591Z,12.57
2018-12-29T17:02:11.086Z,10.43
2018-12-29T17:05:15.548Z,8.07
2018-12-29T17:08:20.025Z,7.90
2018-12-29T17:11:24.661Z,9.10
2018-12-29T17:14:29.276Z,12.03
2018-12-29T17:17:33.648Z,9.67
2018-12-29T17:20:38.070Z,8.73
2018-12-29T17:23:42.508Z,7.87
2018-12-29T17:26:46.955Z,9.70
2018-12-29T17:29:51.495Z,8.63
2018-12-29T17:32:57.100Z,9.50
2018-12-29T17:36:01.938Z,8.83
2018-12-29T17:39:07.869Z,9.17
2018-12-29T17:42:12.540Z,8.80
2018-12-29T17:45:17.016Z,11.57
2018-12-29T17:48:21.398Z,10.47
2018-12-29T17:51:25.801Z,10.00
2018-12-29T17:54:30.441Z,8.00
2018-12-29T17:57:34.846Z,8.63
2018-12-29T18:00:39.422Z,7.70
2018-12-29T18:03:44.198Z,8.97
2018-12-29T18:06:48.655Z,8.03
2018-12-29T18:09:57.101Z,7.80
2018-12-29T18:12:59.362Z,25.13
2018-12-29T18:16:04.013Z,12.60
2018-12-29T18:19:08.467Z,15.30
2018-12-29T18:22:12.863Z,13.23
2018-12-29T18:25:17.486Z,8.27
2018-12-29T18:28:22.306Z,7.60
2018-12-29T18:31:26.701Z,7.17
2018-12-29T18:34:31.135Z,7.07
2018-12-29T18:37:35.511Z,8.80
2018-12-29T18:40:40.146Z,7.30
2018-12-29T18:43:44.697Z,7.73
2018-12-29T18:46:49.075Z,8.00
2018-12-29T18:49:53.422Z,8.10
2018-12-29T18:52:58.128Z,7.77
2018-12-29T18:56:02.495Z,7.70
2018-12-29T18:59:06.878Z,8.10
2018-12-29T19:02:11.266Z,8.50
2018-12-29T19:05:16.027Z,7.43
2018-12-29T19:08:20.726Z,9.30
2018-12-29T19:11:27.349Z,8.70
2018-12-29T19:14:31.697Z,8.10
2018-12-29T19:17:36.166Z,10.33
2018-12-29T19:20:40.786Z,15.37
2018-12-29T19:23:45.740Z,7.47
2018-12-29T19:26:50.503Z,13.33
2018-12-29T19:29:54.980Z,21.97
2018-12-29T19:32:59.490Z,9.97
2018-12-29T19:36:10.306Z,8.90
2018-12-29T19:39:14.774Z,9.40
2018-12-29T19:42:19.208Z,8.87
2018-12-29T19:45:23.534Z,8.63
2018-12-29T19:48:28.433Z,8.67
2018-12-29T19:51:33.275Z,12.27
2018-12-29T19:54:37.659Z,8.97
2018-12-29T19:57:42.338Z,10.17
2018-12-29T20:00:46.724Z,8.33
2018-12-29T20:03:51.555Z,7.07
2018-12-29T20:06:55.926Z,12.47
2018-12-29T20:10:00.361Z,8.70
2018-12-29T20:13:04.790Z,5.97
2018-12-29T20:16:09.144Z,8.57
2018-12-29T20:19:13.512Z,6.20
2018-12-29T20:22:17.965Z,6.10
2018-12-29T20:25:22.245Z,7.30
2018-12-29T20:28:26.748Z,6.73
2018-12-29T20:31:31.095Z,5.27
2018-12-29T20:34:36.092Z,7.87
2018-12-29T20:37:40.688Z,7.87
2018-12-29T20:40:45.549Z,5.57
2018-12-29T20:43:50.047Z,5.93
2018-12-29T20:46:54.568Z,6.27
2018-12-29T20:49:58.999Z,5.50
2018-12-29T20:53:03.422Z,6.00
2018-12-29T20:56:07.772Z,6.87
2018-12-29T20:59:12.072Z,6.20
2018-12-29T21:02:16.461Z,7.23
2018-12-29T21:05:20.903Z,5.87
2018-12-29T21:08:25.242Z,5.70
2018-12-29T21:11:29.723Z,6.73
2018-12-29T21:14:34.197Z,6.57
2018-12-29T21:17:38.629Z,6.93
2018-12-29T21:20:43.061Z,6.33
2018-12-29T21:23:47.449Z,6.57
2018-12-29T21:26:51.821Z,6.30
2018-12-29T21:29:56.260Z,7.70
2018-12-29T21:33:00.823Z,7.17
2018-12-29T21:36:05.226Z,7.50
2018-12-29T21:39:09.701Z,7.93
2018-12-29T21:42:14.134Z,7.53
2018-12-29T21:45:18.547Z,6.43
2018-12-29T21:48:23.015Z,5.50
2018-12-29T21:51:27.349Z,5.57
2018-12-29T21:54:31.739Z,6.03
2018-12-29T21:57:36.150Z,5.53
2018-12-29T22:00:40.457Z,6.53
2018-12-29T22:03:45.269Z,6.07
2018-12-29T22:06:50.674Z,6.13
2018-12-29T22:09:55.122Z,5.63
2018-12-29T22:12:59.536Z,6.77
2018-12-29T22:16:03.948Z,6.07
2018-12-29T22:19:08.393Z,6.97
2018-12-29T22:22:12.691Z,5.93
2018-12-29T22:25:17.436Z,6.73
2018-12-29T22:28:21.785Z,6.37
2018-12-29T22:31:26.129Z,7.03
2018-12-29T22:34:30.571Z,6.20
2018-12-29T22:37:34.939Z,6.40
2018-12-29T22:40:39.326Z,6.53
2018-12-29T22:43:43.707Z,6.40
2018-12-29T22:46:48.091Z,6.57
2018-12-29T22:49:52.599Z,7.23
2018-12-29T22:52:57.003Z,7.97
2018-12-29T22:56:01.328Z,7.20
2018-12-29T22:59:05.655Z,6.90
2018-12-29T23:02:10.148Z,6.83
2018-12-29T23:05:14.452Z,6.30
2018-12-29T23:08:18.933Z,7.20
2018-12-29T23:11:23.349Z,8.27
2018-12-29T23:14:27.643Z,5.77
2018-12-29T23:17:32.438Z,6.47
2018-12-29T23:20:36.792Z,7.77
2018-12-29T23:23:41.214Z,6.60
2018-12-29T23:26:45.663Z,6.57
2018-12-29T23:29:50.321Z,7.33
2018-12-29T23:32:54.657Z,7.10
2018-12-29T23:35:59.117Z,6.93
2018-12-29T23:39:03.924Z,7.13
2018-12-29T23:42:08.274Z,7.23
2018-12-29T23:45:12.665Z,7.37
2018-12-29T23:48:17.273Z,6.53
2018-12-29T23:51:21.631Z,7.07
2018-12-29T23:54:26.071Z,5.73
2018-12-29T23:57:30.937Z,6.80
